Flight Briefing for CPX675

Departure Arrival
Lynden Pindling International Airport (MYNN)
Click to view FAA NOTAMS
Providenciales International Airport (MBPV)
Click to view FAA NOTAMS
Departure Time Arrival Time
N/A N/A
Aircraft Distance
SF340AF 347nm
Departure METAR Arrival METAR
MYNN 181500Z 34007KT 9999 BKN020 BKN030 25/20 A3006 RMK PKWND 9KT MBPV 181500Z 10005KT 9999 SCT012 27/20 Q1016
Suggested Route
ZQA A555 MICAS G648 PVN


View recent IFR Routes data
Notes



Charts and Procedures

Charts for MYNN
No chart available
Charts for MBPV
No chart available

Windy.com Weather Map